sensor_id;sensor_type;location;lat;lon;timestamp;pressure;altitude;pressure_sealevel;temperature;humidity
44934;BME280;30667;43.614;1.442;2023-11-22T00:00:17;100516.19;;;10.68;100.00
44934;BME280;30667;43.614;1.442;2023-11-22T00:02:43;100521.34;;;10.70;100.00
44934;BME280;30667;43.614;1.442;2023-11-22T00:05:08;100510.78;;;10.68;100.00
44934;BME280;30667;43.614;1.442;2023-11-22T00:07:35;100519.16;;;10.67;100.00
44934;BME280;30667;43.614;1.442;2023-11-22T00:10:00;100523.78;;;10.71;100.00
44934;BME280;30667;43.614;1.442;2023-11-22T00:12:27;100520.00;;;10.67;100.00
44934;BME280;30667;43.614;1.442;2023-11-22T00:14:53;100522.69;;;10.67;100.00
44934;BME280;30667;43.614;1.442;2023-11-22T00:17:19;100521.88;;;10.67;100.00
44934;BME280;30667;43.614;1.442;2023-11-22T00:19:44;100514.56;;;10.67;100.00
44934;BME280;30667;43.614;1.442;2023-11-22T00:22:13;100521.31;;;10.65;100.00
44934;BME280;30667;43.614;1.442;2023-11-22T00:24:43;100518.63;;;10.65;100.00
44934;BME280;30667;43.614;1.442;2023-11-22T00:27:11;100517.56;;;10.66;100.00
44934;BME280;30667;43.614;1.442;2023-11-22T00:29:36;100515.91;;;10.65;100.00
44934;BME280;30667;43.614;1.442;2023-11-22T00:32:01;100526.72;;;10.65;100.00
44934;BME280;30667;43.614;1.442;2023-11-22T00:34:27;100524.56;;;10.67;100.00
44934;BME280;30667;43.614;1.442;2023-11-22T00:36:52;100519.69;;;10.69;100.00
44934;BME280;30667;43.614;1.442;2023-11-22T00:39:18;100522.13;;;10.65;100.00
44934;BME280;30667;43.614;1.442;2023-11-22T00:41:44;100525.34;;;10.62;100.00
44934;BME280;30667;43.614;1.442;2023-11-22T00:44:10;100527.25;;;10.62;100.00
44934;BME280;30667;43.614;1.442;2023-11-22T00:46:35;100534.56;;;10.61;100.00
44934;BME280;30667;43.614;1.442;2023-11-22T00:49:02;100537.56;;;10.65;100.00
44934;BME280;30667;43.614;1.442;2023-11-22T00:51:30;100531.31;;;10.59;100.00
44934;BME280;30667;43.614;1.442;2023-11-22T00:53:57;100535.09;;;10.58;100.00
44934;BME280;30667;43.614;1.442;2023-11-22T00:56:23;100538.34;;;10.55;100.00
44934;BME280;30667;43.614;1.442;2023-11-22T00:58:49;100536.97;;;10.52;100.00
44934;BME280;30667;43.614;1.442;2023-11-22T01:01:16;100538.59;;;10.48;100.00
44934;BME280;30667;43.614;1.442;2023-11-22T01:03:41;100540.72;;;10.46;100.00
44934;BME280;30667;43.614;1.442;2023-11-22T01:06:06;100547.22;;;10.45;100.00
44934;BME280;30667;43.614;1.442;2023-11-22T01:08:32;100557.22;;;10.45;100.00
44934;BME280;30667;43.614;1.442;2023-11-22T01:10:58;100550.19;;;10.44;100.00
44934;BME280;30667;43.614;1.442;2023-11-22T01:13:23;100553.97;;;10.43;100.00
44934;BME280;30667;43.614;1.442;2023-11-22T01:15:48;100553.16;;;10.42;100.00
44934;BME280;30667;43.614;1.442;2023-11-22T01:18:14;100559.09;;;10.39;100.00
44934;BME280;30667;43.614;1.442;2023-11-22T01:20:39;100561.81;;;10.39;100.00
44934;BME280;30667;43.614;1.442;2023-11-22T01:23:04;100573.16;;;10.36;100.00
44934;BME280;30667;43.614;1.442;2023-11-22T01:25:30;100572.88;;;10.32;100.00
44934;BME280;30667;43.614;1.442;2023-11-22T01:27:55;100569.00;;;10.28;100.00
44934;BME280;30667;43.614;1.442;2023-11-22T01:30:21;100576.84;;;10.25;100.00
44934;BME280;30667;43.614;1.442;2023-11-22T01:32:47;100583.84;;;10.21;100.00
44934;BME280;30667;43.614;1.442;2023-11-22T01:35:14;100586.25;;;10.17;100.00
44934;BME280;30667;43.614;1.442;2023-11-22T01:37:40;100580.81;;;10.12;100.00
44934;BME280;30667;43.614;1.442;2023-11-22T01:40:07;100580.25;;;10.10;100.00
44934;BME280;30667;43.614;1.442;2023-11-22T01:42:33;100583.22;;;10.08;100.00
44934;BME280;30667;43.614;1.442;2023-11-22T01:44:59;100592.66;;;10.06;100.00
44934;BME280;30667;43.614;1.442;2023-11-22T01:47:25;100594.81;;;10.04;100.00
44934;BME280;30667;43.614;1.442;2023-11-22T01:49:52;100591.28;;;10.03;100.00
44934;BME280;30667;43.614;1.442;2023-11-22T01:52:17;100601.56;;;10.01;100.00
44934;BME280;30667;43.614;1.442;2023-11-22T01:54:43;100588.81;;;9.96;100.00
44934;BME280;30667;43.614;1.442;2023-11-22T01:57:09;100590.13;;;9.94;100.00
44934;BME280;30667;43.614;1.442;2023-11-22T01:59:35;100590.69;;;9.91;100.00
44934;BME280;30667;43.614;1.442;2023-11-22T02:02:01;100588.22;;;9.89;100.00
44934;BME280;30667;43.614;1.442;2023-11-22T02:04:27;100585.53;;;9.89;100.00
44934;BME280;30667;43.614;1.442;2023-11-22T02:06:52;100593.91;;;9.88;100.00
44934;BME280;30667;43.614;1.442;2023-11-22T02:09:18;100598.97;;;9.84;100.00
44934;BME280;30667;43.614;1.442;2023-11-22T02:11:44;100608.19;;;9.83;100.00
44934;BME280;30667;43.614;1.442;2023-11-22T02:14:14;100609.00;;;9.84;100.00
44934;BME280;30667;43.614;1.442;2023-11-22T02:16:40;100616.28;;;9.83;100.00
44934;BME280;30667;43.614;1.442;2023-11-22T02:19:06;100607.09;;;9.84;100.00
44934;BME280;30667;43.614;1.442;2023-11-22T02:21:32;100600.06;;;9.83;100.00
44934;BME280;30667;43.614;1.442;2023-11-22T02:23:58;100601.69;;;9.84;100.00
44934;BME280;30667;43.614;1.442;2023-11-22T02:26:23;100600.06;;;9.83;100.00
44934;BME280;30667;43.614;1.442;2023-11-22T02:28:50;100601.69;;;9.84;100.00
44934;BME280;30667;43.614;1.442;2023-11-22T02:31:16;100598.19;;;9.84;100.00
44934;BME280;30667;43.614;1.442;2023-11-22T02:33:41;100595.72;;;9.82;100.00
44934;BME280;30667;43.614;1.442;2023-11-22T02:36:07;100588.69;;;9.81;100.00
44934;BME280;30667;43.614;1.442;2023-11-22T02:38:33;100583.00;;;9.77;100.00
44934;BME280;30667;43.614;1.442;2023-11-22T02:41:01;100575.94;;;9.76;100.00
44934;BME280;30667;43.614;1.442;2023-11-22T02:43:26;100579.75;;;9.75;100.00
44934;BME280;30667;43.614;1.442;2023-11-22T02:45:51;100583.75;;;9.73;100.00
44934;BME280;30667;43.614;1.442;2023-11-22T02:48:17;100578.34;;;9.73;100.00
44934;BME280;30667;43.614;1.442;2023-11-22T02:50:43;100582.19;;;9.77;100.00
44934;BME280;30667;43.614;1.442;2023-11-22T02:53:09;100574.88;;;9.77;100.00
44934;BME280;30667;43.614;1.442;2023-11-22T02:55:35;100575.94;;;9.76;100.00
44934;BME280;30667;43.614;1.442;2023-11-22T02:58:00;100575.69;;;9.78;100.00
44934;BME280;30667;43.614;1.442;2023-11-22T03:00:27;100578.41;;;9.78;100.00
44934;BME280;30667;43.614;1.442;2023-11-22T03:02:54;100576.53;;;9.78;100.00
44934;BME280;30667;43.614;1.442;2023-11-22T03:05:23;100574.88;;;9.77;100.00
44934;BME280;30667;43.614;1.442;2023-11-22T03:07:49;100576.53;;;9.78;100.00
44934;BME280;30667;43.614;1.442;2023-11-22T03:10:16;100579.22;;;9.78;100.00
44934;BME280;30667;43.614;1.442;2023-11-22T03:12:43;100590.03;;;9.78;100.00
44934;BME280;30667;43.614;1.442;2023-11-22T03:15:09;100582.47;;;9.80;100.00
44934;BME280;30667;43.614;1.442;2023-11-22T03:17:35;100584.94;;;9.82;100.00
44934;BME280;30667;43.614;1.442;2023-11-22T03:20:04;100587.63;;;9.82;100.00
44934;BME280;30667;43.614;1.442;2023-11-22T03:22:34;100582.75;;;9.84;100.00
44934;BME280;30667;43.614;1.442;2023-11-22T03:25:01;100587.09;;;9.85;100.00
44934;BME280;30667;43.614;1.442;2023-11-22T03:27:27;100591.19;;;9.88;100.00
44934;BME280;30667;43.614;1.442;2023-11-22T03:29:53;100583.88;;;9.88;100.00
44934;BME280;30667;43.614;1.442;2023-11-22T03:32:18;100589.84;;;9.90;100.00
44934;BME280;30667;43.614;1.442;2023-11-22T03:34:43;100599.84;;;9.90;100.00
44934;BME280;30667;43.614;1.442;2023-11-22T03:37:09;100587.69;;;9.92;100.00
44934;BME280;30667;43.614;1.442;2023-11-22T03:39:35;100581.47;;;9.92;100.00
44934;BME280;30667;43.614;1.442;2023-11-22T03:42:00;100584.19;;;9.92;100.00
44934;BME280;30667;43.614;1.442;2023-11-22T03:44:25;100579.88;;;9.91;100.00
44934;BME280;30667;43.614;1.442;2023-11-22T03:46:51;100573.88;;;9.89;100.00
44934;BME280;30667;43.614;1.442;2023-11-22T03:49:16;100569.56;;;9.88;100.00
44934;BME280;30667;43.614;1.442;2023-11-22T03:51:42;100577.34;;;9.84;100.00
44934;BME280;30667;43.614;1.442;2023-11-22T03:54:08;100577.63;;;9.82;100.00
44934;BME280;30667;43.614;1.442;2023-11-22T03:56:35;100582.47;;;9.80;100.00
44934;BME280;30667;43.614;1.442;2023-11-22T03:59:00;100586.31;;;9.85;100.00
44934;BME280;30667;43.614;1.442;2023-11-22T04:01:25;100590.34;;;9.87;100.00
44934;BME280;30667;43.614;1.442;2023-11-22T04:03:51;100594.97;;;9.87;100.00
44934;BME280;30667;43.614;1.442;2023-11-22T04:06:17;100593.91;;;9.88;100.00
44934;BME280;30667;43.614;1.442;2023-11-22T04:08:44;100594.16;;;9.86;100.00
44934;BME280;30667;43.614;1.442;2023-11-22T04:11:11;100590.63;;;9.86;100.00
44934;BME280;30667;43.614;1.442;2023-11-22T04:13:51;100579.56;;;9.87;100.00
44934;BME280;30667;43.614;1.442;2023-11-22T04:16:18;100578.75;;;9.87;100.00
44934;BME280;30667;43.614;1.442;2023-11-22T04:18:43;100587.66;;;9.87;100.00
44934;BME280;30667;43.614;1.442;2023-11-22T04:21:08;100593.09;;;9.92;100.00
44934;BME280;30667;43.614;1.442;2023-11-22T04:23:34;100588.00;;;9.96;100.00
44934;BME280;30667;43.614;1.442;2023-11-22T04:26:02;100589.88;;;9.95;100.00
44934;BME280;30667;43.614;1.442;2023-11-22T04:28:28;100591.81;;;10.00;100.00
44934;BME280;30667;43.614;1.442;2023-11-22T04:30:55;100592.91;;;9.99;100.00
44934;BME280;30667;43.614;1.442;2023-11-22T04:33:21;100598.81;;;9.96;100.00
44934;BME280;30667;43.614;1.442;2023-11-22T04:35:48;100601.28;;;9.97;100.00
44934;BME280;30667;43.614;1.442;2023-11-22T04:38:13;100606.97;;;10.01;100.00
44934;BME280;30667;43.614;1.442;2023-11-22T04:40:39;100610.72;;;10.00;100.00
44934;BME280;30667;43.614;1.442;2023-11-22T04:43:04;100614.81;;;10.03;100.00
44934;BME280;30667;43.614;1.442;2023-11-22T04:45:30;100602.88;;;9.98;100.00
44934;BME280;30667;43.614;1.442;2023-11-22T04:47:55;100599.38;;;9.98;100.00
44934;BME280;30667;43.614;1.442;2023-11-22T04:50:23;100610.72;;;10.00;100.00
44934;BME280;30667;43.614;1.442;2023-11-22T04:52:49;100610.72;;;10.00;100.00
44934;BME280;30667;43.614;1.442;2023-11-22T04:55:15;100607.75;;;10.02;100.00
44934;BME280;30667;43.614;1.442;2023-11-22T04:57:41;100610.47;;;10.02;100.00
44934;BME280;30667;43.614;1.442;2023-11-22T05:00:06;100621.59;;;10.05;100.00
44934;BME280;30667;43.614;1.442;2023-11-22T05:02:32;100622.66;;;10.04;100.00
44934;BME280;30667;43.614;1.442;2023-11-22T05:04:58;100626.19;;;10.05;100.00
44934;BME280;30667;43.614;1.442;2023-11-22T05:07:23;100638.63;;;10.06;100.00
44934;BME280;30667;43.614;1.442;2023-11-22T05:09:48;100636.19;;;10.04;100.00
44934;BME280;30667;43.614;1.442;2023-11-22T05:12:14;100636.19;;;10.04;100.00
44934;BME280;30667;43.614;1.442;2023-11-22T05:14:43;100641.59;;;10.04;100.00
44934;BME280;30667;43.614;1.442;2023-11-22T05:17:11;100653.47;;;10.03;100.00
44934;BME280;30667;43.614;1.442;2023-11-22T05:19:37;100652.66;;;10.03;100.00
44934;BME280;30667;43.614;1.442;2023-11-22T05:22:03;100653.47;;;10.03;100.00
44934;BME280;30667;43.614;1.442;2023-11-22T05:24:28;100669.44;;;10.05;100.00
44934;BME280;30667;43.614;1.442;2023-11-22T05:26:54;100658.88;;;10.03;100.00
44934;BME280;30667;43.614;1.442;2023-11-22T05:29:19;100655.38;;;10.03;100.00
44934;BME280;30667;43.614;1.442;2023-11-22T05:31:44;100662.09;;;10.00;100.00
44934;BME280;30667;43.614;1.442;2023-11-22T05:34:10;100666.44;;;10.01;100.00
44934;BME280;30667;43.614;1.442;2023-11-22T05:36:35;100673.47;;;10.02;100.00
44934;BME280;30667;43.614;1.442;2023-11-22T05:39:01;100687.25;;;10.00;100.00
44934;BME280;30667;43.614;1.442;2023-11-22T05:41:28;100678.56;;;9.98;100.00
44934;BME280;30667;43.614;1.442;2023-11-22T05:43:54;100680.72;;;9.96;100.00
44934;BME280;30667;43.614;1.442;2023-11-22T05:46:20;100679.91;;;9.96;100.00
44934;BME280;30667;43.614;1.442;2023-11-22T05:48:50;100686.38;;;9.95;100.00
44934;BME280;30667;43.614;1.442;2023-11-22T05:51:16;100688.53;;;9.93;100.00
44934;BME280;30667;43.614;1.442;2023-11-22T05:53:42;100693.94;;;9.93;100.00
44934;BME280;30667;43.614;1.442;2023-11-22T05:56:07;100698.84;;;9.96;100.00
44934;BME280;30667;43.614;1.442;2023-11-22T05:58:34;100686.63;;;9.93;100.00
44934;BME280;30667;43.614;1.442;2023-11-22T06:01:06;100704.50;;;9.94;100.00
44934;BME280;30667;43.614;1.442;2023-11-22T06:03:33;100699.34;;;9.93;100.00
44934;BME280;30667;43.614;1.442;2023-11-22T06:05:59;100703.41;;;9.95;100.00
44934;BME280;30667;43.614;1.442;2023-11-22T06:08:25;100701.78;;;9.94;100.00
44934;BME280;30667;43.614;1.442;2023-11-22T06:10:50;100708.00;;;9.95;100.00
44934;BME280;30667;43.614;1.442;2023-11-22T06:13:17;100712.88;;;9.93;100.00
44934;BME280;30667;43.614;1.442;2023-11-22T06:15:43;100720.97;;;9.93;100.00
44934;BME280;30667;43.614;1.442;2023-11-22T06:18:08;100719.34;;;9.92;100.00
44934;BME280;30667;43.614;1.442;2023-11-22T06:20:34;100712.88;;;9.93;100.00
44934;BME280;30667;43.614;1.442;2023-11-22T06:22:59;100725.84;;;9.91;100.00
44934;BME280;30667;43.614;1.442;2023-11-22T06:25:25;100723.13;;;9.91;100.00
44934;BME280;30667;43.614;1.442;2023-11-22T06:27:50;100720.94;;;9.88;100.00
44934;BME280;30667;43.614;1.442;2023-11-22T06:30:16;100727.16;;;9.88;100.00
44934;BME280;30667;43.614;1.442;2023-11-22T06:32:41;100730.66;;;9.89;100.00
44934;BME280;30667;43.614;1.442;2023-11-22T06:35:08;100726.34;;;9.88;100.00
44934;BME280;30667;43.614;1.442;2023-11-22T06:37:35;100723.63;;;9.88;100.00
44934;BME280;30667;43.614;1.442;2023-11-22T06:40:00;100733.88;;;9.86;100.00
44934;BME280;30667;43.614;1.442;2023-11-22T06:42:26;100741.47;;;9.89;100.00
44934;BME280;30667;43.614;1.442;2023-11-22T06:44:52;100737.97;;;9.88;100.00
44934;BME280;30667;43.614;1.442;2023-11-22T06:47:19;100736.66;;;9.91;100.00
44934;BME280;30667;43.614;1.442;2023-11-22T06:49:44;100741.47;;;9.89;100.00
44934;BME280;30667;43.614;1.442;2023-11-22T06:52:10;100750.16;;;9.91;100.00
44934;BME280;30667;43.614;1.442;2023-11-22T06:54:35;100745.81;;;9.90;100.00
44934;BME280;30667;43.614;1.442;2023-11-22T06:57:02;100749.31;;;9.90;100.00
44934;BME280;30667;43.614;1.442;2023-11-22T06:59:28;100744.75;;;9.91;100.00
44934;BME280;30667;43.614;1.442;2023-11-22T07:01:54;100742.59;;;9.93;100.00
44934;BME280;30667;43.614;1.442;2023-11-22T07:04:21;100746.09;;;9.93;100.00
44934;BME280;30667;43.614;1.442;2023-11-22T07:06:46;100749.94;;;9.97;100.00
44934;BME280;30667;43.614;1.442;2023-11-22T07:09:12;100759.13;;;9.96;100.00
44934;BME280;30667;43.614;1.442;2023-11-22T07:11:38;100759.94;;;9.97;100.00
44934;BME280;30667;43.614;1.442;2023-11-22T07:14:04;100768.03;;;9.97;100.00
44934;BME280;30667;43.614;1.442;2023-11-22T07:16:30;100771.88;;;10.01;100.00
44934;BME280;30667;43.614;1.442;2023-11-22T07:18:56;100781.63;;;10.02;100.00
44934;BME280;30667;43.614;1.442;2023-11-22T07:21:22;100790.28;;;10.04;100.00
44934;BME280;30667;43.614;1.442;2023-11-22T07:23:47;100792.19;;;10.04;100.00
44934;BME280;30667;43.614;1.442;2023-11-22T07:26:13;100792.75;;;10.06;100.00
44934;BME280;30667;43.614;1.442;2023-11-22T07:28:41;100796.28;;;10.11;100.00
44934;BME280;30667;43.614;1.442;2023-11-22T07:31:07;100802.22;;;10.08;100.00
44934;BME280;30667;43.614;1.442;2023-11-22T07:33:33;100795.19;;;10.07;100.00
44934;BME280;30667;43.614;1.442;2023-11-22T07:35:58;100806.00;;;10.07;100.00
44934;BME280;30667;43.614;1.442;2023-11-22T07:38:24;100812.44;;;10.01;100.00
44934;BME280;30667;43.614;1.442;2023-11-22T07:40:50;100819.22;;;10.04;100.00
44934;BME280;30667;43.614;1.442;2023-11-22T07:43:16;100812.97;;;10.03;100.00
44934;BME280;30667;43.614;1.442;2023-11-22T07:45:41;100819.22;;;10.04;100.00
44934;BME280;30667;43.614;1.442;2023-11-22T07:48:10;100819.78;;;10.06;100.00
44934;BME280;30667;43.614;1.442;2023-11-22T07:50:37;100821.94;;;10.04;100.00
44934;BME280;30667;43.614;1.442;2023-11-22T07:53:03;100827.59;;;10.02;100.00
44934;BME280;30667;43.614;1.442;2023-11-22T07:55:30;100824.03;;;10.02;100.00
44934;BME280;30667;43.614;1.442;2023-11-22T07:57:55;100830.53;;;10.00;100.00
44934;BME280;30667;43.614;1.442;2023-11-22T08:00:21;100831.09;;;10.03;100.00
44934;BME280;30667;43.614;1.442;2023-11-22T08:02:47;100833.81;;;10.03;100.00
44934;BME280;30667;43.614;1.442;2023-11-22T08:05:13;100831.66;;;10.05;100.00
44934;BME280;30667;43.614;1.442;2023-11-22T08:07:41;100831.09;;;10.03;100.00
44934;BME280;30667;43.614;1.442;2023-11-22T08:10:10;100832.50;;;10.05;100.00
44934;BME280;30667;43.614;1.442;2023-11-22T08:12:42;100833.28;;;10.06;100.00
44934;BME280;30667;43.614;1.442;2023-11-22T08:15:10;100836.00;;;10.06;100.00
44934;BME280;30667;43.614;1.442;2023-11-22T08:17:38;100827.88;;;10.06;100.00
44934;BME280;30667;43.614;1.442;2023-11-22T08:20:04;100827.63;;;10.07;100.00
44934;BME280;30667;43.614;1.442;2023-11-22T08:22:31;100825.47;;;10.09;100.00
44934;BME280;30667;43.614;1.442;2023-11-22T08:25:02;100821.72;;;10.10;100.00
44934;BME280;30667;43.614;1.442;2023-11-22T08:27:28;100817.63;;;10.08;100.00
44934;BME280;30667;43.614;1.442;2023-11-22T08:29:53;100825.22;;;10.11;100.00
44934;BME280;30667;43.614;1.442;2023-11-22T08:32:19;100828.75;;;10.11;100.00
44934;BME280;30667;43.614;1.442;2023-11-22T08:34:49;100824.72;;;10.14;100.00
44934;BME280;30667;43.614;1.442;2023-11-22T08:37:15;100827.13;;;10.10;100.00
44934;BME280;30667;43.614;1.442;2023-11-22T08:39:40;100824.16;;;10.12;100.00
44934;BME280;30667;43.614;1.442;2023-11-22T08:42:07;100828.75;;;10.11;100.00
44934;BME280;30667;43.614;1.442;2023-11-22T08:44:35;100823.91;;;10.13;100.00
44934;BME280;30667;43.614;1.442;2023-11-22T08:47:01;100829.06;;;10.15;100.00
44934;BME280;30667;43.614;1.442;2023-11-22T08:49:28;100821.22;;;10.13;100.00
44934;BME280;30667;43.614;1.442;2023-11-22T08:51:53;100813.66;;;10.15;100.00
44934;BME280;30667;43.614;1.442;2023-11-22T08:54:19;100814.47;;;10.16;100.00
44934;BME280;30667;43.614;1.442;2023-11-22T08:56:44;100821.25;;;10.18;100.00
44934;BME280;30667;43.614;1.442;2023-11-22T08:59:12;100823.47;;;10.22;100.00
44934;BME280;30667;43.614;1.442;2023-11-22T09:01:37;100821.25;;;10.18;100.00
44934;BME280;30667;43.614;1.442;2023-11-22T09:04:03;100823.72;;;10.20;100.00
44934;BME280;30667;43.614;1.442;2023-11-22T09:06:28;100829.13;;;10.20;100.00
44934;BME280;30667;43.614;1.442;2023-11-22T09:08:55;100821.31;;;10.24;100.00
44934;BME280;30667;43.614;1.442;2023-11-22T09:11:21;100828.34;;;10.25;100.00
44934;BME280;30667;43.614;1.442;2023-11-22T09:13:48;100821.84;;;10.26;100.00
44934;BME280;30667;43.614;1.442;2023-11-22T09:16:15;100820.78;;;10.27;100.00
44934;BME280;30667;43.614;1.442;2023-11-22T09:18:41;100813.50;;;10.27;100.00
44934;BME280;30667;43.614;1.442;2023-11-22T09:21:08;100808.34;;;10.26;100.00
44934;BME280;30667;43.614;1.442;2023-11-22T09:23:34;100808.91;;;10.28;100.00
44934;BME280;30667;43.614;1.442;2023-11-22T09:26:02;100806.75;;;10.30;100.00
44934;BME280;30667;43.614;1.442;2023-11-22T09:28:28;100807.00;;;10.28;100.00
44934;BME280;30667;43.614;1.442;2023-11-22T09:30:53;100814.63;;;10.31;100.00
44934;BME280;30667;43.614;1.442;2023-11-22T09:33:26;100812.50;;;10.33;100.00
44934;BME280;30667;43.614;1.442;2023-11-22T09:35:52;100807.31;;;10.32;100.00
44934;BME280;30667;43.614;1.442;2023-11-22T09:38:17;100810.63;;;10.34;100.00
44934;BME280;30667;43.614;1.442;2023-11-22T09:40:49;100827.97;;;10.38;100.00
44934;BME280;30667;43.614;1.442;2023-11-22T09:43:16;100836.34;;;10.36;100.00
44934;BME280;30667;43.614;1.442;2023-11-22T09:45:46;100841.53;;;10.43;100.00
44934;BME280;30667;43.614;1.442;2023-11-22T09:50:57;100835.31;;;10.43;100.00
44934;BME280;30667;43.614;1.442;2023-11-22T09:53:33;100838.03;;;10.43;100.00
44934;BME280;30667;43.614;1.442;2023-11-22T09:56:00;100853.22;;;10.49;100.00
44934;BME280;30667;43.614;1.442;2023-11-22T09:58:29;100852.94;;;10.45;100.00
44934;BME280;30667;43.614;1.442;2023-11-22T10:00:56;100850.53;;;10.49;100.00
44934;BME280;30667;43.614;1.442;2023-11-22T10:03:23;100856.75;;;10.49;100.00
44934;BME280;30667;43.614;1.442;2023-11-22T10:05:49;100858.94;;;10.52;100.00
44934;BME280;30667;43.614;1.442;2023-11-22T10:08:14;100862.75;;;10.51;100.00
44934;BME280;30667;43.614;1.442;2023-11-22T10:10:42;100866.03;;;10.59;100.00
44934;BME280;30667;43.614;1.442;2023-11-22T10:13:10;100867.94;;;10.58;100.00
44934;BME280;30667;43.614;1.442;2023-11-22T10:15:35;100866.84;;;10.59;100.00
44934;BME280;30667;43.614;1.442;2023-11-22T10:18:01;100871.16;;;10.55;100.00
44934;BME280;30667;43.614;1.442;2023-11-22T10:20:38;100870.63;;;10.58;100.00
44934;BME280;30667;43.614;1.442;2023-11-22T10:23:08;100869.00;;;10.57;100.00
44934;BME280;30667;43.614;1.442;2023-11-22T10:25:34;100868.47;;;10.60;100.00
44934;BME280;30667;43.614;1.442;2023-11-22T10:27:59;100869.28;;;10.61;100.00
44934;BME280;30667;43.614;1.442;2023-11-22T10:30:24;100863.84;;;10.56;100.00
44934;BME280;30667;43.614;1.442;2023-11-22T10:32:53;100868.44;;;10.55;100.00
44934;BME280;30667;43.614;1.442;2023-11-22T10:35:19;100867.16;;;10.63;100.00
44934;BME280;30667;43.614;1.442;2023-11-22T10:37:47;100872.09;;;10.71;100.00
44934;BME280;30667;43.614;1.442;2023-11-22T10:40:14;100882.69;;;10.72;100.00
44934;BME280;30667;43.614;1.442;2023-11-22T10:42:42;100871.22;;;10.65;100.00
44934;BME280;30667;43.614;1.442;2023-11-22T10:45:09;100882.28;;;10.59;100.00
44934;BME280;30667;43.614;1.442;2023-11-22T10:47:37;100881.97;;;10.55;100.00
44934;BME280;30667;43.614;1.442;2023-11-22T10:50:05;100871.44;;;10.59;100.00
44934;BME280;30667;43.614;1.442;2023-11-22T10:52:34;100866.31;;;10.62;100.00
44934;BME280;30667;43.614;1.442;2023-11-22T10:55:04;100862.00;;;10.61;100.00
44934;BME280;30667;43.614;1.442;2023-11-22T10:57:32;100871.44;;;10.59;100.00
44934;BME280;30667;43.614;1.442;2023-11-22T11:00:02;100871.47;;;10.64;100.00
44934;BME280;30667;43.614;1.442;2023-11-22T11:02:36;100861.81;;;10.73;100.00
44934;BME280;30667;43.614;1.442;2023-11-22T11:05:08;100852.16;;;10.82;100.00
44934;BME280;30667;43.614;1.442;2023-11-22T11:07:40;100843.59;;;10.96;100.00
44934;BME280;30667;43.614;1.442;2023-11-22T11:10:07;100839.59;;;11.03;100.00
44934;BME280;30667;43.614;1.442;2023-11-22T11:12:33;100825.00;;;11.09;100.00
44934;BME280;30667;43.614;1.442;2023-11-22T11:14:59;100818.88;;;11.24;100.00
44934;BME280;30667;43.614;1.442;2023-11-22T11:17:25;100828.66;;;11.31;100.00
44934;BME280;30667;43.614;1.442;2023-11-22T11:19:50;100837.31;;;11.33;100.00
44934;BME280;30667;43.614;1.442;2023-11-22T11:22:16;100839.97;;;11.17;100.00
44934;BME280;30667;43.614;1.442;2023-11-22T11:24:48;100828.84;;;11.14;100.00
44934;BME280;30667;43.614;1.442;2023-11-22T11:27:25;100827.47;;;11.11;100.00
44934;BME280;30667;43.614;1.442;2023-11-22T11:29:50;100826.69;;;11.16;100.00
44934;BME280;30667;43.614;1.442;2023-11-22T11:32:30;100833.69;;;11.12;100.00
44934;BME280;30667;43.614;1.442;2023-11-22T11:35:00;100831.25;;;11.15;100.00
44934;BME280;30667;43.614;1.442;2023-11-22T11:37:29;100842.09;;;11.15;100.00
44934;BME280;30667;43.614;1.442;2023-11-22T11:39:55;100845.38;;;11.17;100.00
44934;BME280;30667;43.614;1.442;2023-11-22T11:42:20;100837.50;;;11.16;100.00
44934;BME280;30667;43.614;1.442;2023-11-22T11:47:21;100825.28;;;11.13;100.00
44934;BME280;30667;43.614;1.442;2023-11-22T11:49:49;100829.66;;;11.14;100.00
44934;BME280;30667;43.614;1.442;2023-11-22T11:52:31;100830.97;;;11.12;100.00
44934;BME280;30667;43.614;1.442;2023-11-22T11:55:17;100839.34;;;11.10;100.00
44934;BME280;30667;43.614;1.442;2023-11-22T11:57:43;100837.28;;;11.22;100.00
44934;BME280;30667;43.614;1.442;2023-11-22T12:00:13;100835.13;;;11.24;100.00
44934;BME280;30667;43.614;1.442;2023-11-22T12:02:40;100839.13;;;11.17;100.00
44934;BME280;30667;43.614;1.442;2023-11-22T12:05:06;100847.50;;;11.15;100.00
44934;BME280;30667;43.614;1.442;2023-11-22T12:07:37;100846.19;;;11.18;100.00
44934;BME280;30667;43.614;1.442;2023-11-22T12:10:03;100841.06;;;11.21;100.00
44934;BME280;30667;43.614;1.442;2023-11-22T12:12:31;100840.22;;;11.16;100.00
44934;BME280;30667;43.614;1.442;2023-11-22T12:14:57;100849.16;;;11.16;100.00
44934;BME280;30667;43.614;1.442;2023-11-22T12:17:22;100846.44;;;11.16;100.00
44934;BME280;30667;43.614;1.442;2023-11-22T12:19:48;100847.81;;;11.19;100.00
44934;BME280;30667;43.614;1.442;2023-11-22T12:22:14;100854.59;;;11.21;100.00
44934;BME280;30667;43.614;1.442;2023-11-22T12:24:42;100847.59;;;11.25;100.00
44934;BME280;30667;43.614;1.442;2023-11-22T12:27:11;100834.59;;;11.27;100.00
44934;BME280;30667;43.614;1.442;2023-11-22T12:29:37;100834.88;;;11.31;100.00
44934;BME280;30667;43.614;1.442;2023-11-22T12:32:03;100828.94;;;11.34;100.00
44934;BME280;30667;43.614;1.442;2023-11-22T12:34:28;100838.13;;;11.28;100.00
44934;BME280;30667;43.614;1.442;2023-11-22T12:36:55;100840.84;;;11.28;100.00
44934;BME280;30667;43.614;1.442;2023-11-22T12:39:21;100836.47;;;11.22;100.00
44934;BME280;30667;43.614;1.442;2023-11-22T12:41:49;100818.88;;;11.24;100.00
44934;BME280;30667;43.614;1.442;2023-11-22T12:44:16;100832.47;;;11.30;100.00